createdAt,value
2018-02-03T00:02:18.814Z,17.00
2018-02-03T00:04:47.238Z,16.37
2018-02-03T00:07:15.635Z,19.80
2018-02-03T00:09:44.085Z,18.00
2018-02-03T00:12:12.521Z,17.83
2018-02-03T00:14:40.923Z,18.37
2018-02-03T00:17:09.386Z,18.30
2018-02-03T00:19:37.764Z,14.50
2018-02-03T00:22:06.160Z,18.97
2018-02-03T00:24:34.587Z,15.77
2018-02-03T00:27:02.989Z,20.23
2018-02-03T00:29:31.407Z,15.47
2018-02-03T00:31:59.860Z,19.87
2018-02-03T00:34:28.261Z,18.63
2018-02-03T00:36:56.677Z,19.57
2018-02-03T00:39:25.134Z,18.03
2018-02-03T00:41:53.525Z,21.97
2018-02-03T00:44:21.906Z,18.80
2018-02-03T00:46:50.349Z,20.87
2018-02-03T00:49:18.754Z,22.67
2018-02-03T00:51:47.141Z,20.07
2018-02-03T00:54:15.810Z,20.93
2018-02-03T00:56:44.215Z,19.57
2018-02-03T00:59:12.616Z,20.90
2018-02-03T01:01:41.085Z,23.90
2018-02-03T01:04:09.464Z,21.43
2018-02-03T01:06:37.846Z,22.63
2018-02-03T01:09:06.280Z,23.10
2018-02-03T01:11:34.681Z,22.27
2018-02-03T01:14:03.087Z,22.37
2018-02-03T01:16:31.525Z,27.00
2018-02-03T01:18:59.923Z,22.53
2018-02-03T01:21:28.323Z,24.20
2018-02-03T01:23:56.741Z,19.50
2018-02-03T01:26:25.126Z,22.53
2018-02-03T01:28:53.528Z,21.63
2018-02-03T01:31:21.963Z,23.83
2018-02-03T01:33:50.423Z,23.33
2018-02-03T01:36:18.825Z,22.57
2018-02-03T01:38:47.249Z,23.60
2018-02-03T01:41:15.669Z,25.10
2018-02-03T01:43:44.067Z,25.13
2018-02-03T01:46:12.509Z,22.13
2018-02-03T01:48:40.893Z,23.63
2018-02-03T01:51:09.273Z,24.23
2018-02-03T01:53:37.954Z,24.37
2018-02-03T01:56:06.345Z,25.50
2018-02-03T01:58:34.730Z,25.57
2018-02-03T02:01:03.165Z,24.03
2018-02-03T02:03:31.570Z,22.93
2018-02-03T02:05:59.961Z,24.37
2018-02-03T02:08:28.391Z,25.77
2018-02-03T02:10:56.791Z,24.10
2018-02-03T02:13:25.181Z,29.43
2018-02-03T02:15:53.634Z,28.63
2018-02-03T02:18:22.046Z,25.53
2018-02-03T02:20:50.429Z,23.90
2018-02-03T02:23:18.885Z,26.23
2018-02-03T02:25:47.281Z,27.87
2018-02-03T02:28:15.683Z,27.53
2018-02-03T02:30:44.141Z,26.20
2018-02-03T02:33:12.552Z,23.80
2018-02-03T02:35:40.959Z,28.60
2018-02-03T02:38:09.394Z,27.57
2018-02-03T02:40:37.804Z,28.33
2018-02-03T02:43:06.440Z,24.87
2018-02-03T02:45:34.867Z,26.50
2018-02-03T02:48:03.268Z,26.60
2018-02-03T02:50:31.735Z,25.00
2018-02-03T02:53:00.172Z,26.13
2018-02-03T02:55:28.565Z,26.27
2018-02-03T02:57:56.959Z,28.07
2018-02-03T03:00:25.409Z,26.23
2018-02-03T03:02:53.797Z,24.17
2018-02-03T03:05:22.200Z,23.87
2018-02-03T03:07:50.632Z,27.07
2018-02-03T03:10:19.032Z,23.17
2018-02-03T03:12:47.409Z,20.67
2018-02-03T03:15:16.007Z,21.83
2018-02-03T03:17:44.432Z,20.53
2018-02-03T03:20:12.822Z,22.17
2018-02-03T03:25:15.687Z,27.60
2018-02-03T03:27:44.134Z,20.83
2018-02-03T03:30:12.539Z,22.17
2018-02-03T03:32:40.942Z,29.00
2018-02-03T03:35:09.387Z,21.17
2018-02-03T03:37:37.785Z,22.37
2018-02-03T03:40:06.173Z,22.50
2018-02-03T03:42:34.614Z,25.10
2018-02-03T03:45:03.005Z,22.27
2018-02-03T03:47:31.396Z,22.30
2018-02-03T03:49:59.813Z,22.90
2018-02-03T03:52:28.222Z,21.50
2018-02-03T03:54:56.605Z,23.40
2018-02-03T03:57:25.037Z,23.80
2018-02-03T03:59:53.449Z,24.67
2018-02-03T04:02:21.867Z,25.53
2018-02-03T04:04:50.305Z,21.70
2018-02-03T04:07:18.722Z,21.60
2018-02-03T04:09:47.111Z,23.87
2018-02-03T04:12:15.534Z,25.70
2018-02-03T04:14:43.921Z,19.83
2018-02-03T04:17:12.321Z,26.73
2018-02-03T04:19:40.786Z,28.57
2018-02-03T04:22:09.179Z,23.17
2018-02-03T04:24:37.576Z,20.03
2018-02-03T04:27:06.016Z,22.37
2018-02-03T04:29:34.405Z,18.43
2018-02-03T04:32:02.799Z,21.47
2018-02-03T04:34:31.229Z,22.87
2018-02-03T04:36:59.614Z,21.50
2018-02-03T04:39:28.006Z,19.53
2018-02-03T04:41:56.425Z,18.03
2018-02-03T04:44:24.822Z,19.77
2018-02-03T04:46:53.228Z,16.53
2018-02-03T04:49:21.658Z,16.93
2018-02-03T04:51:50.103Z,18.03
2018-02-03T04:54:18.499Z,16.47
2018-02-03T04:56:46.925Z,17.30
2018-02-03T04:59:15.319Z,17.43
2018-02-03T05:01:43.753Z,17.90
2018-02-03T05:04:12.190Z,15.87
2018-02-03T05:06:40.585Z,17.50
2018-02-03T05:09:08.987Z,15.53
2018-02-03T05:11:37.439Z,19.60
2018-02-03T05:14:05.842Z,17.50
2018-02-03T05:16:34.259Z,15.63
2018-02-03T05:19:02.682Z,14.20
2018-02-03T05:21:31.080Z,15.23
2018-02-03T05:23:59.470Z,15.53
2018-02-03T05:26:27.907Z,14.80
2018-02-03T05:28:56.298Z,14.50
2018-02-03T05:31:24.681Z,11.97
2018-02-03T05:33:53.111Z,13.23
2018-02-03T05:36:21.493Z,9.83
2018-02-03T05:38:49.896Z,11.53
2018-02-03T05:41:18.324Z,10.50
2018-02-03T05:43:46.735Z,10.23
2018-02-03T05:46:15.141Z,9.50
2018-02-03T05:48:43.577Z,9.93
2018-02-03T05:51:11.958Z,8.67
2018-02-03T05:53:40.334Z,11.07
2018-02-03T05:56:08.807Z,11.33
2018-02-03T05:58:37.208Z,10.10
2018-02-03T06:01:05.616Z,9.43
2018-02-03T06:03:34.043Z,8.57
2018-02-03T06:06:02.421Z,11.93
2018-02-03T06:08:30.797Z,10.93
2018-02-03T06:10:59.212Z,10.77
2018-02-03T06:13:27.584Z,10.47
2018-02-03T06:15:55.964Z,14.73
2018-02-03T06:18:24.406Z,7.93
2018-02-03T06:20:52.776Z,10.43
2018-02-03T06:23:21.159Z,11.43
2018-02-03T06:25:49.588Z,11.17
2018-02-03T06:28:17.983Z,13.23
2018-02-03T06:30:46.369Z,13.33
2018-02-03T06:33:14.787Z,10.97
2018-02-03T06:35:43.171Z,10.17
2018-02-03T06:38:11.567Z,14.40
2018-02-03T06:40:39.996Z,10.87
2018-02-03T06:43:08.387Z,11.50
2018-02-03T06:45:36.776Z,11.90
2018-02-03T06:48:05.215Z,12.00
2018-02-03T06:50:33.591Z,10.73
2018-02-03T06:53:01.969Z,11.57
2018-02-03T06:55:30.400Z,10.07
2018-02-03T06:57:58.786Z,12.57
2018-02-03T07:00:27.173Z,9.30
2018-02-03T07:02:55.604Z,13.73
2018-02-03T07:05:23.999Z,10.13
2018-02-03T07:07:52.385Z,13.60
2018-02-03T07:10:20.856Z,12.57
2018-02-03T07:12:49.271Z,10.53
2018-02-03T07:15:17.693Z,11.53
2018-02-03T07:17:46.145Z,13.97
2018-02-03T07:20:14.542Z,18.50
2018-02-03T07:22:42.928Z,15.77
2018-02-03T07:25:11.376Z,9.47
2018-02-03T07:27:39.764Z,17.13
2018-02-03T07:30:08.222Z,12.23
2018-02-03T07:32:36.723Z,8.53
2018-02-03T07:35:05.107Z,10.00
2018-02-03T07:37:33.489Z,7.03
2018-02-03T07:40:01.902Z,8.80
2018-02-03T07:42:30.295Z,7.30
2018-02-03T07:44:58.757Z,10.40
2018-02-03T07:47:27.236Z,9.37
2018-02-03T07:49:55.621Z,10.37
2018-02-03T07:52:24.024Z,12.47
2018-02-03T07:54:52.685Z,9.70
2018-02-03T07:57:21.071Z,8.93
2018-02-03T07:59:49.451Z,10.53
2018-02-03T08:02:17.904Z,11.73
2018-02-03T08:04:46.287Z,15.50
2018-02-03T08:07:14.676Z,11.27
2018-02-03T08:09:43.115Z,10.63
2018-02-03T08:12:11.505Z,10.07
2018-02-03T08:14:39.894Z,9.80
2018-02-03T08:17:08.314Z,10.47
2018-02-03T08:19:36.703Z,15.03
2018-02-03T08:22:05.095Z,10.93
2018-02-03T08:24:33.527Z,11.07
2018-02-03T08:27:01.910Z,9.30
2018-02-03T08:29:30.290Z,14.17
2018-02-03T08:31:58.795Z,14.50
2018-02-03T08:34:27.165Z,12.60
2018-02-03T08:36:55.549Z,12.20
2018-02-03T08:39:23.982Z,10.87
2018-02-03T08:41:52.364Z,12.33
2018-02-03T08:44:20.758Z,10.10
2018-02-03T08:46:49.186Z,12.17
2018-02-03T08:49:17.577Z,10.20
2018-02-03T08:51:45.972Z,14.60
2018-02-03T08:54:14.395Z,9.30
2018-02-03T08:56:42.790Z,10.93
2018-02-03T08:59:11.206Z,11.43
2018-02-03T09:01:39.619Z,13.77
2018-02-03T09:04:08.012Z,12.97
2018-02-03T09:06:36.389Z,11.57
2018-02-03T09:09:04.890Z,10.43
2018-02-03T09:11:33.303Z,8.17
2018-02-03T09:14:01.687Z,12.33
2018-02-03T09:16:30.127Z,10.27
2018-02-03T09:18:58.509Z,8.23
2018-02-03T09:21:26.899Z,9.13
2018-02-03T09:23:55.319Z,9.37
2018-02-03T09:26:23.706Z,12.33
2018-02-03T09:28:52.111Z,11.97
2018-02-03T09:31:20.545Z,15.30
2018-02-03T09:33:49.190Z,10.23
2018-02-03T09:36:17.574Z,8.43
2018-02-03T09:38:46.024Z,13.47
2018-02-03T09:41:14.405Z,10.63
2018-02-03T09:43:42.781Z,13.53
2018-02-03T09:46:11.210Z,9.87
2018-02-03T09:48:39.581Z,9.00
2018-02-03T09:51:07.957Z,13.03
2018-02-03T09:53:36.411Z,11.80
2018-02-03T09:56:04.798Z,10.37
2018-02-03T09:58:33.197Z,7.27
2018-02-03T10:01:01.628Z,8.30
2018-02-03T10:03:30.007Z,12.77
2018-02-03T10:05:58.420Z,8.83
2018-02-03T10:08:26.853Z,12.17
2018-02-03T10:10:55.248Z,9.77
2018-02-03T10:13:23.625Z,9.67
2018-02-03T10:15:52.089Z,6.20
2018-02-03T10:18:20.462Z,11.23
2018-02-03T10:20:48.833Z,7.57
2018-02-03T10:23:17.265Z,8.90
2018-02-03T10:25:45.643Z,7.83
2018-02-03T10:28:14.025Z,9.00
2018-02-03T10:30:42.451Z,9.97
2018-02-03T10:33:10.830Z,8.73
2018-02-03T10:35:39.203Z,10.73
2018-02-03T10:38:07.699Z,6.40
2018-02-03T10:40:36.073Z,7.37
2018-02-03T10:43:04.446Z,12.87
2018-02-03T10:45:32.875Z,6.97
2018-02-03T10:48:01.263Z,7.13
2018-02-03T10:50:29.671Z,9.07
2018-02-03T10:52:58.106Z,7.27
2018-02-03T10:55:26.491Z,6.87
2018-02-03T10:57:54.872Z,7.53
2018-02-03T11:00:24.097Z,6.47
2018-02-03T11:02:52.485Z,7.27
2018-02-03T11:05:20.861Z,8.10
2018-02-03T11:07:49.294Z,6.60
2018-02-03T11:10:17.689Z,5.30
2018-02-03T11:12:46.108Z,12.67
2018-02-03T11:15:14.544Z,7.10
2018-02-03T11:17:42.947Z,5.87
2018-02-03T11:20:11.341Z,8.83
2018-02-03T11:22:39.769Z,6.27
2018-02-03T11:25:08.138Z,8.27
2018-02-03T11:27:36.515Z,6.67
2018-02-03T11:30:04.943Z,7.67
2018-02-03T11:32:33.331Z,9.33
2018-02-03T11:35:01.722Z,8.93
2018-02-03T11:37:30.157Z,6.53
2018-02-03T11:39:58.563Z,11.93
2018-02-03T11:42:26.956Z,5.47
2018-02-03T11:44:55.391Z,6.87
2018-02-03T11:47:23.773Z,5.70
2018-02-03T11:49:52.155Z,8.33
2018-02-03T11:52:20.577Z,6.83
2018-02-03T11:54:48.974Z,10.10
2018-02-03T11:57:17.366Z,9.03
2018-02-03T11:59:45.793Z,8.87
2018-02-03T12:02:14.165Z,6.50
2018-02-03T12:04:42.550Z,5.97
2018-02-03T12:07:10.977Z,8.10
2018-02-03T12:09:39.368Z,6.37
2018-02-03T12:12:07.785Z,6.20
2018-02-03T12:14:36.200Z,7.27
2018-02-03T12:17:04.576Z,7.90
2018-02-03T12:19:32.961Z,10.33
2018-02-03T12:22:01.384Z,10.13
2018-02-03T12:24:29.770Z,9.93
2018-02-03T12:26:58.138Z,6.50
2018-02-03T12:29:26.559Z,8.87
2018-02-03T12:31:54.948Z,8.50
2018-02-03T12:34:23.342Z,7.60
2018-02-03T12:36:51.926Z,5.63
2018-02-03T12:39:20.297Z,8.03
2018-02-03T12:41:48.674Z,8.23
2018-02-03T12:44:17.111Z,7.10
2018-02-03T12:46:45.489Z,8.63
2018-02-03T12:49:13.881Z,7.27
2018-02-03T12:51:42.300Z,5.30
2018-02-03T12:54:10.683Z,5.23
2018-02-03T12:56:39.067Z,7.50
2018-02-03T12:59:07.487Z,8.63
2018-02-03T13:01:35.892Z,7.73
2018-02-03T13:04:04.296Z,5.30
2018-02-03T13:06:32.708Z,8.97
2018-02-03T13:09:01.089Z,5.17
2018-02-03T13:11:29.500Z,7.07
2018-02-03T13:13:57.926Z,5.40
2018-02-03T13:16:26.297Z,7.27
2018-02-03T13:18:54.739Z,7.27
2018-02-03T13:21:23.164Z,7.63
2018-02-03T13:23:51.537Z,6.20
2018-02-03T13:26:19.912Z,5.17
2018-02-03T13:28:48.343Z,5.70
2018-02-03T13:31:16.710Z,6.23
2018-02-03T13:33:45.093Z,7.77
2018-02-03T13:36:13.511Z,5.20
2018-02-03T13:38:41.913Z,8.33
2018-02-03T13:41:10.301Z,4.87
2018-02-03T13:43:38.712Z,5.07
2018-02-03T13:46:07.086Z,5.13
2018-02-03T13:48:35.475Z,9.47
2018-02-03T13:51:03.903Z,6.40
2018-02-03T13:53:32.311Z,6.73
2018-02-03T13:56:00.717Z,5.47
2018-02-03T13:58:29.120Z,7.47
2018-02-03T14:00:57.498Z,7.83
2018-02-03T14:03:25.886Z,7.17
2018-02-03T14:05:54.319Z,5.90
2018-02-03T14:08:22.736Z,9.20
2018-02-03T14:10:51.105Z,8.37
2018-02-03T14:13:19.532Z,8.20
2018-02-03T14:15:47.920Z,6.27
2018-02-03T14:18:16.293Z,5.10
2018-02-03T14:20:44.935Z,4.97
2018-02-03T14:23:13.323Z,5.07
2018-02-03T14:25:41.769Z,5.23
2018-02-03T14:28:10.486Z,5.60
2018-02-03T14:30:38.870Z,6.97
2018-02-03T14:33:07.259Z,5.67
2018-02-03T14:35:35.681Z,7.17
2018-02-03T14:38:04.074Z,5.87
2018-02-03T14:40:32.443Z,8.07
2018-02-03T14:43:00.862Z,6.50
2018-02-03T14:45:29.259Z,10.43
2018-02-03T14:47:57.647Z,8.30
2018-02-03T14:50:26.063Z,6.80
2018-02-03T14:52:54.477Z,9.30
2018-02-03T14:55:22.844Z,7.07
2018-02-03T14:57:51.257Z,7.80
2018-02-03T15:00:19.663Z,7.33
2018-02-03T15:02:48.047Z,8.13
2018-02-03T15:05:16.479Z,6.87
2018-02-03T15:07:44.884Z,6.80
2018-02-03T15:10:13.264Z,6.93
2018-02-03T15:12:41.699Z,7.30
2018-02-03T15:15:10.091Z,7.53
2018-02-03T15:17:38.488Z,7.10
2018-02-03T15:20:06.924Z,10.00
2018-02-03T15:22:35.505Z,8.63
2018-02-03T15:25:03.948Z,5.93
2018-02-03T15:27:32.459Z,10.40
2018-02-03T15:30:00.833Z,10.60
2018-02-03T15:32:29.212Z,16.43
2018-02-03T15:34:57.639Z,11.40
2018-02-03T15:37:26.032Z,11.40
2018-02-03T15:39:54.414Z,13.53
2018-02-03T15:42:22.857Z,12.67
2018-02-03T15:44:51.241Z,12.07
2018-02-03T15:47:19.614Z,13.97
2018-02-03T15:49:48.110Z,10.93
2018-02-03T15:52:16.501Z,13.67
2018-02-03T15:54:44.927Z,14.67
2018-02-03T15:57:13.372Z,12.90
2018-02-03T15:59:41.849Z,22.33
2018-02-03T16:02:10.233Z,22.47
2018-02-03T16:04:38.692Z,13.40
2018-02-03T16:07:07.072Z,13.77
2018-02-03T16:09:35.455Z,12.93
2018-02-03T16:12:03.873Z,9.23
2018-02-03T16:14:32.255Z,11.20
2018-02-03T16:17:00.650Z,13.07
2018-02-03T16:19:29.257Z,13.70
2018-02-03T16:21:57.645Z,9.83
2018-02-03T16:24:26.028Z,12.87
2018-02-03T16:26:54.553Z,17.03
2018-02-03T16:29:22.971Z,16.50
2018-02-03T16:31:51.365Z,12.60
2018-02-03T16:34:19.844Z,14.43
2018-02-03T16:36:48.238Z,16.53
2018-02-03T16:39:16.618Z,14.87
2018-02-03T16:41:45.043Z,12.73
2018-02-03T16:44:13.413Z,11.53
2018-02-03T16:46:41.847Z,12.50
2018-02-03T16:49:10.279Z,12.53
2018-02-03T16:51:38.711Z,10.20
2018-02-03T16:54:07.100Z,12.70
2018-02-03T16:56:42.355Z,11.17
2018-02-03T16:59:10.741Z,12.73
2018-02-03T17:01:39.112Z,11.83
2018-02-03T17:04:07.551Z,9.93
2018-02-03T17:06:35.938Z,9.70
2018-02-03T17:09:04.397Z,12.00
2018-02-03T17:11:32.836Z,9.33
2018-02-03T17:14:01.236Z,11.27
2018-02-03T17:16:29.654Z,15.37
2018-02-03T17:18:58.102Z,11.83
2018-02-03T17:21:26.528Z,13.43
2018-02-03T17:23:54.929Z,16.80
2018-02-03T17:26:23.349Z,18.30
2018-02-03T17:28:51.750Z,15.23
2018-02-03T17:31:20.129Z,15.97
2018-02-03T17:33:48.570Z,16.40
2018-02-03T17:36:22.446Z,14.17
2018-02-03T17:38:50.909Z,15.47
2018-02-03T17:41:19.296Z,14.43
2018-02-03T17:43:47.694Z,11.80
2018-02-03T17:46:21.634Z,12.13
2018-02-03T17:48:50.023Z,13.90
2018-02-03T17:51:18.410Z,11.67
2018-02-03T17:53:46.839Z,12.77
2018-02-03T17:56:20.930Z,12.13
2018-02-03T17:58:49.376Z,13.37
2018-02-03T18:01:17.776Z,18.27
2018-02-03T18:03:47.069Z,13.10
2018-02-03T18:06:15.534Z,14.43
2018-02-03T18:08:43.927Z,14.93
2018-02-03T18:11:12.337Z,14.03
2018-02-03T18:13:40.780Z,18.43
2018-02-03T18:16:09.163Z,20.63
2018-02-03T18:18:37.549Z,16.17
2018-02-03T18:21:06.003Z,16.10
2018-02-03T18:23:34.393Z,17.17
2018-02-03T18:26:02.780Z,16.97
2018-02-03T18:28:31.212Z,16.37
2018-02-03T18:30:59.594Z,15.33
2018-02-03T18:33:27.986Z,16.17
2018-02-03T18:35:56.472Z,13.77
2018-02-03T18:38:24.907Z,15.00
2018-02-03T18:40:53.311Z,13.87
2018-02-03T18:43:21.755Z,16.00
2018-02-03T18:45:50.146Z,16.73
2018-02-03T18:48:18.541Z,14.77
2018-02-03T18:50:46.981Z,14.53
2018-02-03T18:53:15.371Z,15.37
2018-02-03T18:55:43.792Z,15.03
2018-02-03T18:58:12.245Z,14.30
2018-02-03T19:00:40.631Z,13.73
2018-02-03T19:03:09.035Z,13.87
2018-02-03T19:05:37.484Z,14.80
2018-02-03T19:08:05.883Z,12.90
2018-02-03T19:10:34.283Z,16.63
2018-02-03T19:13:02.721Z,14.53
2018-02-03T19:15:31.143Z,17.43
2018-02-03T19:17:59.521Z,15.33
2018-02-03T19:20:27.956Z,16.23
2018-02-03T19:22:56.357Z,15.23
2018-02-03T19:25:24.797Z,17.00
2018-02-03T19:27:53.272Z,17.80
2018-02-03T19:30:21.671Z,15.93
2018-02-03T19:32:50.083Z,15.10
2018-02-03T19:35:18.533Z,16.17
2018-02-03T19:37:46.940Z,14.87
2018-02-03T19:40:15.329Z,16.97
2018-02-03T19:42:43.761Z,16.20
2018-02-03T19:45:12.165Z,15.77
2018-02-03T19:47:40.558Z,15.07
2018-02-03T19:50:09.003Z,15.33
2018-02-03T19:52:37.394Z,15.00
2018-02-03T19:55:05.781Z,14.33
2018-02-03T19:57:34.202Z,14.60
2018-02-03T20:00:02.595Z,17.87
2018-02-03T20:02:30.996Z,14.83
2018-02-03T20:04:59.437Z,17.37
2018-02-03T20:07:27.844Z,13.40
2018-02-03T20:09:56.258Z,13.20
2018-02-03T20:12:24.687Z,15.33
2018-02-03T20:14:53.097Z,17.73
2018-02-03T20:17:21.493Z,17.40
2018-02-03T20:19:49.932Z,16.47
2018-02-03T20:22:18.330Z,18.03
2018-02-03T20:24:46.712Z,18.30
2018-02-03T20:27:15.145Z,16.37
2018-02-03T20:29:43.542Z,17.20
2018-02-03T20:32:11.934Z,17.67
2018-02-03T20:34:40.361Z,18.40
2018-02-03T20:37:08.755Z,18.83
2018-02-03T20:39:37.157Z,22.73
2018-02-03T20:42:05.585Z,24.87
2018-02-03T20:44:33.997Z,23.77
2018-02-03T20:47:02.419Z,28.70
2018-02-03T20:49:30.868Z,24.47
2018-02-03T20:51:59.256Z,21.20
2018-02-03T20:54:27.664Z,26.10
2018-02-03T20:56:56.236Z,25.93
2018-02-03T20:59:24.626Z,21.97
2018-02-03T21:01:53.032Z,23.40
2018-02-03T21:04:21.478Z,26.53
2018-02-03T21:06:49.886Z,24.30
2018-02-03T21:09:19.243Z,25.23
2018-02-03T21:11:47.671Z,21.60
2018-02-03T21:14:16.080Z,23.23
2018-02-03T21:16:44.487Z,27.57
2018-02-03T21:19:12.934Z,26.07
2018-02-03T21:21:41.331Z,27.37
2018-02-03T21:24:09.737Z,30.63
2018-02-03T21:26:38.175Z,28.93
2018-02-03T21:29:06.563Z,30.10
2018-02-03T21:31:34.965Z,26.93
2018-02-03T21:34:03.411Z,29.53
2018-02-03T21:36:31.807Z,30.77
2018-02-03T21:39:00.218Z,26.77
2018-02-03T21:41:28.658Z,26.93
2018-02-03T21:43:57.058Z,29.60
2018-02-03T21:46:25.468Z,27.00
2018-02-03T21:48:53.889Z,29.47
2018-02-03T21:51:22.298Z,29.97
2018-02-03T21:53:50.706Z,31.93
2018-02-03T21:56:19.157Z,31.30
2018-02-03T21:58:47.567Z,34.20
2018-02-03T22:01:15.965Z,35.70
2018-02-03T22:03:44.464Z,34.87
2018-02-03T22:06:12.853Z,37.00
2018-02-03T22:08:41.254Z,39.53
2018-02-03T22:11:09.699Z,37.20
2018-02-03T22:13:38.093Z,38.80
2018-02-03T22:16:06.496Z,41.00
2018-02-03T22:18:34.959Z,37.43
2018-02-03T22:21:03.362Z,38.73
2018-02-03T22:23:31.763Z,35.07
2018-02-03T22:26:00.217Z,34.00
2018-02-03T22:28:28.613Z,34.03
2018-02-03T22:30:57.018Z,31.53
2018-02-03T22:33:25.513Z,30.20
2018-02-03T22:35:53.951Z,32.40
2018-02-03T22:38:22.383Z,35.33
2018-02-03T22:40:50.828Z,29.60
2018-02-03T22:43:19.234Z,31.53
2018-02-03T22:45:47.646Z,29.30
2018-02-03T22:48:16.306Z,28.13
2018-02-03T22:50:44.732Z,30.70
2018-02-03T22:53:13.148Z,25.00
2018-02-03T22:55:41.587Z,26.80
2018-02-03T22:58:09.991Z,23.43
2018-02-03T23:00:38.420Z,21.00
2018-02-03T23:03:06.870Z,26.03
2018-02-03T23:05:35.257Z,21.33
2018-02-03T23:08:03.655Z,18.57
2018-02-03T23:10:32.120Z,18.60
2018-02-03T23:13:00.509Z,20.57
2018-02-03T23:15:28.881Z,25.60
2018-02-03T23:17:57.330Z,19.37
2018-02-03T23:20:25.724Z,16.87
2018-02-03T23:22:54.119Z,17.13
2018-02-03T23:25:22.575Z,19.60
2018-02-03T23:27:50.967Z,18.67
2018-02-03T23:30:19.356Z,17.23
2018-02-03T23:32:47.781Z,15.43
2018-02-03T23:35:16.167Z,18.07
2018-02-03T23:37:44.607Z,16.60
2018-02-03T23:40:13.067Z,15.03
2018-02-03T23:42:41.457Z,16.77
2018-02-03T23:45:09.841Z,14.20
2018-02-03T23:47:38.505Z,15.33
2018-02-03T23:50:06.889Z,12.90
2018-02-03T23:52:35.280Z,13.73
2018-02-03T23:55:03.714Z,16.17
2018-02-03T23:57:32.102Z,16.47
